Lafayette, IN (47902)

10:39 PM EDT on August 27, 2016 (GMT -0400)
Sequoya Dr. / Miami Elementary | | Change Station

Elev 659 ft 40.39 °N, 86.87 °W | Updated 17 seconds ago

Clear
Clear
78.1 °F
Feels Like 81 °F
N
1.3
Wind Variable Wind from West
Gusts 2.5 mph

Today
High -- | Low -- °F
--% Chance of Precip.
Yesterday
High -- | Low -- °F
Precip. -- in
Pressure 30.08 in
Visibility 10.0 miles
Clouds Clear
Heat Index 81 °F
Dew Point 74 °F
Humidity 88%
Rainfall 0.33 in
Snow Depth Not available.
7:10 AM 8:26 PM
Waning Crescent, 19% visible
METAR KLAF 280154Z AUTO 19006KT 10SM CLR 26/23 A3009 RMK AO2 SLP184 T02560228
Pressure 30.08 in
Visibility 10.0 miles
Clouds Clear
Heat Index 81 °F
Dew Point 74 °F
Humidity 88%
Rainfall 0.33 in
Snow Depth Not available.
7:10 AM 8:26 PM
Waning Crescent, 19% visible
METAR KLAF 280154Z AUTO 19006KT 10SM CLR 26/23 A3009 RMK AO2 SLP184 T02560228

10-Day Weather Forecast

Almanac

Astronomy

Aug. 27, 2016 Rise Set
Actual Time
Civil Twilight
Nautical Twilight
Astronomical Twilight
Moon
Length of Visible Light
Length of Day
Tomorrow will be .
, % of the Moon is Illuminated

Today's Extremes

State Highs State Lows

Community

WunderPhotos

Upload Photos

1,935,497 photos uploaded!

WunderBlog® & News

Nearby

Air Quality

  Air Quality AQ Index Pollutant
Not available.

Snow Depth

Station Depth Elevation

Earthquake Activity

City Distance Mag. Time & Date
Minimum magnitude displayed is 2.5.

Coastal Water Temperatures

Place Temperature

Stations

Nearby Weather Stations

Station Location Temp. Windchill Dew Point Humidity Wind Precip. Elev Updated Type
                   

Watches & Warnings

There are currently no watches in effect.